sensor_id;sensor_type;location;lat;lon;timestamp;pressure;altitude;pressure_sealevel;temperature;humidity
79085;BME280;68486;42.808;23.422;2023-06-22T00:01:11;94591.78;;;16.96;72.23
79085;BME280;68486;42.808;23.422;2023-06-22T00:03:37;94590.19;;;16.95;73.03
79085;BME280;68486;42.808;23.422;2023-06-22T00:06:02;94599.66;;;16.85;74.20
79085;BME280;68486;42.808;23.422;2023-06-22T00:08:27;94587.44;;;16.84;74.02
79085;BME280;68486;42.808;23.422;2023-06-22T00:10:53;94593.81;;;16.94;75.91
79085;BME280;68486;42.808;23.422;2023-06-22T00:13:18;94583.44;;;16.81;72.49
79085;BME280;68486;42.808;23.422;2023-06-22T00:15:44;94588.97;;;16.73;74.78
79085;BME280;68486;42.808;23.422;2023-06-22T00:18:10;94586.66;;;16.58;75.58
79085;BME280;68486;42.808;23.422;2023-06-22T00:20:36;94579.19;;;16.55;77.08
79085;BME280;68486;42.808;23.422;2023-06-22T00:23:03;94584.47;;;16.55;76.09
79085;BME280;68486;42.808;23.422;2023-06-22T00:25:34;94575.16;;;16.52;76.37
79085;BME280;68486;42.808;23.422;2023-06-22T00:28:00;94577.63;;;16.47;76.22
79085;BME280;68486;42.808;23.422;2023-06-22T00:30:25;94572.13;;;16.49;77.29
79085;BME280;68486;42.808;23.422;2023-06-22T00:32:50;94572.06;;;16.37;76.62
79085;BME280;68486;42.808;23.422;2023-06-22T00:35:16;94576.72;;;16.17;76.36
79085;BME280;68486;42.808;23.422;2023-06-22T00:37:41;94560.56;;;16.25;75.37
79085;BME280;68486;42.808;23.422;2023-06-22T00:40:08;94568.06;;;16.28;75.52
79085;BME280;68486;42.808;23.422;2023-06-22T00:42:36;94582.34;;;16.45;77.79
79085;BME280;68486;42.808;23.422;2023-06-22T00:45:01;94535.59;;;16.21;77.55
79085;BME280;68486;42.808;23.422;2023-06-22T00:47:27;94553.63;;;16.06;76.87
79085;BME280;68486;42.808;23.422;2023-06-22T00:49:53;94582.47;;;16.32;75.84
79085;BME280;68486;42.808;23.422;2023-06-22T00:52:20;94570.88;;;16.33;77.61
79085;BME280;68486;42.808;23.422;2023-06-22T00:54:51;94577.41;;;16.31;78.36
79085;BME280;68486;42.808;23.422;2023-06-22T00:57:17;94580.06;;;16.31;77.02
79085;BME280;68486;42.808;23.422;2023-06-22T00:59:46;94584.53;;;16.30;77.68
79085;BME280;68486;42.808;23.422;2023-06-22T01:02:13;94590.34;;;16.39;76.77
79085;BME280;68486;42.808;23.422;2023-06-22T01:04:39;94593.56;;;16.41;76.73
79085;BME280;68486;42.808;23.422;2023-06-22T01:10:14;94577.75;;;16.34;78.03
79085;BME280;68486;42.808;23.422;2023-06-22T01:13:01;94586.09;;;16.38;78.13
79085;BME280;68486;42.808;23.422;2023-06-22T01:15:46;94595.09;;;16.30;79.22
79085;BME280;68486;42.808;23.422;2023-06-22T01:18:14;94578.75;;;16.15;78.07
79085;BME280;68486;42.808;23.422;2023-06-22T01:20:42;94582.59;;;16.19;78.76
79085;BME280;68486;42.808;23.422;2023-06-22T01:23:46;94583.16;;;16.21;79.35
79085;BME280;68486;42.808;23.422;2023-06-22T01:26:20;94574.66;;;16.19;79.93
79085;BME280;68486;42.808;23.422;2023-06-22T01:28:53;94590.22;;;16.09;81.38
79085;BME280;68486;42.808;23.422;2023-06-22T01:31:23;94594.69;;;16.08;82.14
79085;BME280;68486;42.808;23.422;2023-06-22T01:33:55;94587.00;;;16.00;82.41
79085;BME280;68486;42.808;23.422;2023-06-22T01:36:25;94594.13;;;15.99;81.14
79085;BME280;68486;42.808;23.422;2023-06-22T01:38:52;94597.53;;;16.07;80.91
79085;BME280;68486;42.808;23.422;2023-06-22T01:41:17;94595.38;;;15.97;81.40
79085;BME280;68486;42.808;23.422;2023-06-22T01:43:45;94596.34;;;16.03;80.85
79085;BME280;68486;42.808;23.422;2023-06-22T01:46:11;94599.13;;;16.08;82.73
79085;BME280;68486;42.808;23.422;2023-06-22T01:48:38;94592.38;;;15.93;81.84
79085;BME280;68486;42.808;23.422;2023-06-22T01:51:04;94601.09;;;15.94;81.73
79085;BME280;68486;42.808;23.422;2023-06-22T01:53:29;94598.09;;;15.84;82.90
79085;BME280;68486;42.808;23.422;2023-06-22T01:55:56;94597.84;;;15.60;81.41
79085;BME280;68486;42.808;23.422;2023-06-22T01:58:25;94610.38;;;15.33;82.26
79085;BME280;68486;42.808;23.422;2023-06-22T02:01:10;94604.84;;;15.41;82.02
79085;BME280;68486;42.808;23.422;2023-06-22T02:03:46;94602.97;;;15.49;82.55
79085;BME280;68486;42.808;23.422;2023-06-22T02:06:30;94608.41;;;15.60;82.06
79085;BME280;68486;42.808;23.422;2023-06-22T02:09:02;94604.38;;;15.58;82.17
79085;BME280;68486;42.808;23.422;2023-06-22T02:11:28;94575.56;;;15.50;82.19
79085;BME280;68486;42.808;23.422;2023-06-22T02:13:57;94613.09;;;15.65;81.67
79085;BME280;68486;42.808;23.422;2023-06-22T02:16:23;94610.00;;;15.68;82.61
79085;BME280;68486;42.808;23.422;2023-06-22T02:18:49;94617.78;;;15.50;81.14
79085;BME280;68486;42.808;23.422;2023-06-22T02:21:21;94593.09;;;15.37;83.04
79085;BME280;68486;42.808;23.422;2023-06-22T02:23:47;94596.31;;;15.46;82.91
79085;BME280;68486;42.808;23.422;2023-06-22T02:26:13;94608.84;;;15.57;83.09
79085;BME280;68486;42.808;23.422;2023-06-22T02:28:38;94597.88;;;15.54;83.16
79085;BME280;68486;42.808;23.422;2023-06-22T02:31:04;94600.47;;;15.60;84.52
79085;BME280;68486;42.808;23.422;2023-06-22T02:33:29;94604.75;;;15.61;84.42
79085;BME280;68486;42.808;23.422;2023-06-22T02:35:55;94594.66;;;15.52;84.01
79085;BME280;68486;42.808;23.422;2023-06-22T02:38:20;94596.84;;;15.55;84.40
79085;BME280;68486;42.808;23.422;2023-06-22T02:40:46;94605.22;;;15.52;84.87
79085;BME280;68486;42.808;23.422;2023-06-22T02:43:12;94603.94;;;15.61;86.48
79085;BME280;68486;42.808;23.422;2023-06-22T02:45:38;94596.25;;;15.53;84.25
79085;BME280;68486;42.808;23.422;2023-06-22T02:48:03;94604.34;;;15.64;86.08
79085;BME280;68486;42.808;23.422;2023-06-22T02:50:29;94613.09;;;15.65;84.71
79085;BME280;68486;42.808;23.422;2023-06-22T02:52:54;94617.25;;;15.79;85.29
79085;BME280;68486;42.808;23.422;2023-06-22T02:55:20;94609.06;;;15.87;86.38
79085;BME280;68486;42.808;23.422;2023-06-22T02:57:45;94566.56;;;15.64;85.28
79085;BME280;68486;42.808;23.422;2023-06-22T03:00:13;94610.59;;;16.02;86.22
79085;BME280;68486;42.808;23.422;2023-06-22T03:02:46;94553.56;;;15.62;84.31
79085;BME280;68486;42.808;23.422;2023-06-22T03:05:12;94612.78;;;16.05;84.81
79085;BME280;68486;42.808;23.422;2023-06-22T03:07:41;94616.88;;;16.00;83.95
79085;BME280;68486;42.808;23.422;2023-06-22T03:10:12;94608.53;;;16.04;84.08
79085;BME280;68486;42.808;23.422;2023-06-22T03:12:38;94616.28;;;15.98;83.78
79085;BME280;68486;42.808;23.422;2023-06-22T03:15:09;94626.84;;;15.98;83.35
79085;BME280;68486;42.808;23.422;2023-06-22T03:17:35;94622.91;;;16.08;84.67
79085;BME280;68486;42.808;23.422;2023-06-22T03:20:01;94626.84;;;15.98;83.54
79085;BME280;68486;42.808;23.422;2023-06-22T03:22:32;94628.31;;;15.94;84.21
79085;BME280;68486;42.808;23.422;2023-06-22T03:24:57;94616.34;;;15.92;84.05
79085;BME280;68486;42.808;23.422;2023-06-22T03:27:24;94641.00;;;16.11;84.27
79085;BME280;68486;42.808;23.422;2023-06-22T03:29:50;94635.31;;;16.07;82.99
79085;BME280;68486;42.808;23.422;2023-06-22T03:32:15;94639.84;;;16.00;84.03
79085;BME280;68486;42.808;23.422;2023-06-22T03:34:40;94640.47;;;16.02;82.58
79085;BME280;68486;42.808;23.422;2023-06-22T03:37:06;94642.16;;;16.15;82.80
79085;BME280;68486;42.808;23.422;2023-06-22T03:39:31;94605.81;;;15.85;82.95
79085;BME280;68486;42.808;23.422;2023-06-22T03:41:57;94651.88;;;15.96;81.66
79085;BME280;68486;42.808;23.422;2023-06-22T03:44:22;94648.69;;;16.12;83.56
79085;BME280;68486;42.808;23.422;2023-06-22T03:46:47;94649.84;;;16.23;83.50
79085;BME280;68486;42.808;23.422;2023-06-22T03:49:13;94646.63;;;16.14;82.58
79085;BME280;68486;42.808;23.422;2023-06-22T03:51:38;94650.44;;;16.25;83.85
79085;BME280;68486;42.808;23.422;2023-06-22T03:54:04;94658.19;;;16.20;83.04
79085;BME280;68486;42.808;23.422;2023-06-22T03:56:29;94659.66;;;16.41;83.59
79085;BME280;68486;42.808;23.422;2023-06-22T03:58:55;94647.47;;;16.40;82.54
79085;BME280;68486;42.808;23.422;2023-06-22T04:01:20;94648.44;;;16.45;82.75
79085;BME280;68486;42.808;23.422;2023-06-22T04:03:45;94650.22;;;16.26;82.73
79085;BME280;68486;42.808;23.422;2023-06-22T04:06:13;94651.03;;;16.52;82.02
79085;BME280;68486;42.808;23.422;2023-06-22T04:08:39;94656.25;;;16.59;83.48
79085;BME280;68486;42.808;23.422;2023-06-22T04:11:04;94657.81;;;16.66;82.57
79085;BME280;68486;42.808;23.422;2023-06-22T04:13:30;94653.09;;;16.68;82.10
79085;BME280;68486;42.808;23.422;2023-06-22T04:15:55;94648.19;;;16.72;82.72
79085;BME280;68486;42.808;23.422;2023-06-22T04:18:21;94642.78;;;16.85;82.68
79085;BME280;68486;42.808;23.422;2023-06-22T04:20:46;94646.00;;;16.87;82.66
79085;BME280;68486;42.808;23.422;2023-06-22T04:23:12;94607.94;;;16.70;82.70
79085;BME280;68486;42.808;23.422;2023-06-22T04:25:37;94634.81;;;16.67;82.25
79085;BME280;68486;42.808;23.422;2023-06-22T04:28:03;94637.63;;;16.72;83.47
79085;BME280;68486;42.808;23.422;2023-06-22T04:30:29;94632.88;;;16.99;82.63
79085;BME280;68486;42.808;23.422;2023-06-22T04:32:56;94636.09;;;17.01;82.07
79085;BME280;68486;42.808;23.422;2023-06-22T04:35:25;94624.63;;;17.25;82.00
79085;BME280;68486;42.808;23.422;2023-06-22T04:37:53;94639.81;;;17.48;81.17
79085;BME280;68486;42.808;23.422;2023-06-22T04:40:21;94622.22;;;17.54;81.83
79085;BME280;68486;42.808;23.422;2023-06-22T04:42:47;94635.56;;;17.77;79.82
79085;BME280;68486;42.808;23.422;2023-06-22T04:45:17;94615.72;;;17.68;77.29
79085;BME280;68486;42.808;23.422;2023-06-22T04:47:42;94641.53;;;17.73;78.63
79085;BME280;68486;42.808;23.422;2023-06-22T04:50:11;94664.03;;;17.82;79.15
79085;BME280;68486;42.808;23.422;2023-06-22T04:52:37;94655.94;;;18.07;76.46
79085;BME280;68486;42.808;23.422;2023-06-22T04:55:02;94645.47;;;18.24;74.75
79085;BME280;68486;42.808;23.422;2023-06-22T04:57:29;94655.63;;;18.27;76.90
79085;BME280;68486;42.808;23.422;2023-06-22T04:59:58;94653.06;;;18.32;76.27
79085;BME280;68486;42.808;23.422;2023-06-22T05:02:36;94665.59;;;18.66;74.58
79085;BME280;68486;42.808;23.422;2023-06-22T05:05:03;94638.34;;;18.59;73.73
79085;BME280;68486;42.808;23.422;2023-06-22T05:07:34;94653.34;;;19.12;72.63
79085;BME280;68486;42.808;23.422;2023-06-22T05:10:03;94652.13;;;19.32;70.09
79085;BME280;68486;42.808;23.422;2023-06-22T05:12:29;94658.19;;;19.15;70.39
79085;BME280;68486;42.808;23.422;2023-06-22T05:14:55;94668.81;;;19.67;69.77
79085;BME280;68486;42.808;23.422;2023-06-22T05:17:20;94660.59;;;19.97;68.09
79085;BME280;68486;42.808;23.422;2023-06-22T05:19:46;94664.38;;;20.47;68.68
79085;BME280;68486;42.808;23.422;2023-06-22T05:22:15;94658.56;;;20.67;66.49
79085;BME280;68486;42.808;23.422;2023-06-22T05:24:42;94663.09;;;20.66;66.14
79085;BME280;68486;42.808;23.422;2023-06-22T05:27:07;94669.03;;;20.39;67.62
79085;BME280;68486;42.808;23.422;2023-06-22T05:29:33;94669.94;;;21.17;64.99
79085;BME280;68486;42.808;23.422;2023-06-22T05:31:58;94665.97;;;20.81;65.16
79085;BME280;68486;42.808;23.422;2023-06-22T05:34:24;94680.91;;;21.60;62.68
79085;BME280;68486;42.808;23.422;2023-06-22T05:36:49;94682.56;;;21.88;62.35
79085;BME280;68486;42.808;23.422;2023-06-22T05:39:15;94655.25;;;22.02;61.82
79085;BME280;68486;42.808;23.422;2023-06-22T05:41:41;94676.09;;;22.33;59.49
79085;BME280;68486;42.808;23.422;2023-06-22T05:44:06;94645.44;;;22.72;59.75
79085;BME280;68486;42.808;23.422;2023-06-22T05:46:32;94678.09;;;22.84;60.63
79085;BME280;68486;42.808;23.422;2023-06-22T05:48:57;94676.34;;;22.63;59.73
79085;BME280;68486;42.808;23.422;2023-06-22T05:51:23;94670.09;;;22.20;61.49
79085;BME280;68486;42.808;23.422;2023-06-22T05:53:48;94682.09;;;22.82;59.29
79085;BME280;68486;42.808;23.422;2023-06-22T05:56:18;94672.31;;;23.45;58.28
79085;BME280;68486;42.808;23.422;2023-06-22T05:58:46;94670.69;;;23.39;58.43
79085;BME280;68486;42.808;23.422;2023-06-22T06:01:11;94679.88;;;24.52;54.95
79085;BME280;68486;42.808;23.422;2023-06-22T06:03:37;94673.72;;;24.41;55.40
79085;BME280;68486;42.808;23.422;2023-06-22T06:06:06;94670.97;;;24.26;55.35
79085;BME280;68486;42.808;23.422;2023-06-22T06:08:32;94673.34;;;23.97;54.71
79085;BME280;68486;42.808;23.422;2023-06-22T06:10:57;94671.25;;;24.29;54.44
79085;BME280;68486;42.808;23.422;2023-06-22T06:13:24;94680.13;;;24.45;54.57
79085;BME280;68486;42.808;23.422;2023-06-22T06:15:50;94680.59;;;25.39;52.80
79085;BME280;68486;42.808;23.422;2023-06-22T06:18:20;94684.16;;;24.83;53.11
79085;BME280;68486;42.808;23.422;2023-06-22T06:20:46;94679.00;;;25.33;53.24
79085;BME280;68486;42.808;23.422;2023-06-22T06:23:11;94683.75;;;25.56;51.93
79085;BME280;68486;42.808;23.422;2023-06-22T06:25:36;94685.31;;;25.77;51.02
79085;BME280;68486;42.808;23.422;2023-06-22T06:28:02;94679.41;;;27.03;47.34
79085;BME280;68486;42.808;23.422;2023-06-22T06:30:28;94683.53;;;26.90;48.02
79085;BME280;68486;42.808;23.422;2023-06-22T06:32:53;94680.59;;;27.45;48.01
79085;BME280;68486;42.808;23.422;2023-06-22T06:35:19;94686.56;;;27.42;46.93
79085;BME280;68486;42.808;23.422;2023-06-22T06:37:48;94688.56;;;26.68;47.24
79085;BME280;68486;42.808;23.422;2023-06-22T06:40:14;94672.69;;;27.06;46.04
79085;BME280;68486;42.808;23.422;2023-06-22T06:42:48;94680.44;;;27.60;46.49
79085;BME280;68486;42.808;23.422;2023-06-22T06:45:19;94681.72;;;27.15;46.19
79085;BME280;68486;42.808;23.422;2023-06-22T06:47:45;94661.81;;;27.16;46.54
79085;BME280;68486;42.808;23.422;2023-06-22T06:50:11;94674.56;;;27.82;46.31
79085;BME280;68486;42.808;23.422;2023-06-22T06:52:37;94659.66;;;27.66;44.97
79085;BME280;68486;42.808;23.422;2023-06-22T06:55:03;94669.88;;;27.69;46.33
79085;BME280;68486;42.808;23.422;2023-06-22T06:57:29;94665.56;;;26.86;48.27
79085;BME280;68486;42.808;23.422;2023-06-22T06:59:58;94667.31;;;27.30;45.50
79085;BME280;68486;42.808;23.422;2023-06-22T07:02:25;94666.44;;;26.47;47.60
79085;BME280;68486;42.808;23.422;2023-06-22T07:04:53;94668.09;;;25.89;49.90
79085;BME280;68486;42.808;23.422;2023-06-22T07:07:20;94670.28;;;26.31;50.43
79085;BME280;68486;42.808;23.422;2023-06-22T07:09:46;94669.59;;;26.88;46.91
79085;BME280;68486;42.808;23.422;2023-06-22T07:12:11;94668.19;;;27.25;47.45
79085;BME280;68486;42.808;23.422;2023-06-22T07:14:36;94675.09;;;26.39;48.65
79085;BME280;68486;42.808;23.422;2023-06-22T07:17:02;94675.25;;;26.53;48.51
79085;BME280;68486;42.808;23.422;2023-06-22T07:19:27;94676.72;;;26.69;47.03
79085;BME280;68486;42.808;23.422;2023-06-22T07:21:56;94673.88;;;26.89;47.78
79085;BME280;68486;42.808;23.422;2023-06-22T07:24:22;94671.97;;;27.24;45.80
79085;BME280;68486;42.808;23.422;2023-06-22T07:26:48;94661.81;;;27.88;43.43
79085;BME280;68486;42.808;23.422;2023-06-22T07:29:16;94679.78;;;28.54;43.29
79085;BME280;68486;42.808;23.422;2023-06-22T07:31:41;94679.69;;;27.55;44.29
79085;BME280;68486;42.808;23.422;2023-06-22T07:34:07;94682.41;;;26.97;46.83
79085;BME280;68486;42.808;23.422;2023-06-22T07:36:32;94681.84;;;27.29;46.82
79085;BME280;68486;42.808;23.422;2023-06-22T07:38:58;94672.94;;;27.09;46.44
79085;BME280;68486;42.808;23.422;2023-06-22T07:41:23;94668.84;;;26.83;47.75
79085;BME280;68486;42.808;23.422;2023-06-22T07:43:48;94665.84;;;28.09;45.46
79085;BME280;68486;42.808;23.422;2023-06-22T07:46:15;94671.31;;;28.61;43.29
79085;BME280;68486;42.808;23.422;2023-06-22T07:48:40;94677.97;;;29.01;41.50
79085;BME280;68486;42.808;23.422;2023-06-22T07:51:07;94674.09;;;26.93;46.08
79085;BME280;68486;42.808;23.422;2023-06-22T07:53:32;94672.13;;;27.57;44.40
79085;BME280;68486;42.808;23.422;2023-06-22T07:55:58;94673.75;;;26.71;46.70
79085;BME280;68486;42.808;23.422;2023-06-22T07:58:23;94668.75;;;27.22;47.72
79085;BME280;68486;42.808;23.422;2023-06-22T08:00:48;94674.69;;;26.56;49.15
79085;BME280;68486;42.808;23.422;2023-06-22T08:03:14;94659.97;;;27.16;48.15
79085;BME280;68486;42.808;23.422;2023-06-22T08:05:40;94659.03;;;27.26;46.54
79085;BME280;68486;42.808;23.422;2023-06-22T08:08:05;94658.66;;;26.01;49.43
79085;BME280;68486;42.808;23.422;2023-06-22T08:10:30;94656.22;;;27.84;46.47
79085;BME280;68486;42.808;23.422;2023-06-22T08:12:56;94657.09;;;28.41;44.02
79085;BME280;68486;42.808;23.422;2023-06-22T08:15:21;94650.84;;;27.84;43.94
79085;BME280;68486;42.808;23.422;2023-06-22T08:17:47;94652.88;;;28.68;42.60
79085;BME280;68486;42.808;23.422;2023-06-22T08:20:12;94645.25;;;29.07;43.47
79085;BME280;68486;42.808;23.422;2023-06-22T08:22:41;94641.25;;;29.46;42.79
79085;BME280;68486;42.808;23.422;2023-06-22T08:25:08;94654.81;;;28.48;42.65
79085;BME280;68486;42.808;23.422;2023-06-22T08:27:34;94660.94;;;28.35;42.34
79085;BME280;68486;42.808;23.422;2023-06-22T08:30:00;94664.44;;;28.36;41.72
79085;BME280;68486;42.808;23.422;2023-06-22T08:32:29;94664.13;;;27.52;45.82
79085;BME280;68486;42.808;23.422;2023-06-22T08:34:56;94659.88;;;27.74;43.79
79085;BME280;68486;42.808;23.422;2023-06-22T08:37:22;94644.53;;;27.94;42.33
79085;BME280;68486;42.808;23.422;2023-06-22T08:39:58;94650.34;;;28.01;45.25
79085;BME280;68486;42.808;23.422;2023-06-22T08:42:24;94656.78;;;28.94;42.88
79085;BME280;68486;42.808;23.422;2023-06-22T08:44:51;94651.63;;;29.11;42.46
79085;BME280;68486;42.808;23.422;2023-06-22T08:47:16;94649.06;;;29.48;41.90
79085;BME280;68486;42.808;23.422;2023-06-22T08:49:41;94650.78;;;30.35;39.65
79085;BME280;68486;42.808;23.422;2023-06-22T08:52:07;94647.69;;;31.09;38.30
79085;BME280;68486;42.808;23.422;2023-06-22T08:54:33;94645.13;;;31.35;38.32
79085;BME280;68486;42.808;23.422;2023-06-22T08:57:00;94642.56;;;32.52;35.50
79085;BME280;68486;42.808;23.422;2023-06-22T08:59:25;94645.88;;;33.57;34.12
79085;BME280;68486;42.808;23.422;2023-06-22T09:01:51;94648.50;;;30.64;35.97
79085;BME280;68486;42.808;23.422;2023-06-22T09:04:16;94637.97;;;31.78;36.31
79085;BME280;68486;42.808;23.422;2023-06-22T09:06:41;94643.78;;;31.63;36.67
79085;BME280;68486;42.808;23.422;2023-06-22T09:09:12;94621.91;;;31.99;35.47
79085;BME280;68486;42.808;23.422;2023-06-22T09:11:38;94645.41;;;31.02;36.84
79085;BME280;68486;42.808;23.422;2023-06-22T09:14:03;94615.38;;;31.92;34.91
79085;BME280;68486;42.808;23.422;2023-06-22T09:16:29;94638.34;;;32.20;34.72
79085;BME280;68486;42.808;23.422;2023-06-22T09:18:55;94632.38;;;31.04;36.40
79085;BME280;68486;42.808;23.422;2023-06-22T09:21:20;94639.34;;;32.50;34.99
79085;BME280;68486;42.808;23.422;2023-06-22T09:23:46;94636.97;;;31.66;35.54
79085;BME280;68486;42.808;23.422;2023-06-22T09:26:15;94636.16;;;32.74;34.85
79085;BME280;68486;42.808;23.422;2023-06-22T09:28:41;94632.16;;;33.91;32.26
79085;BME280;68486;42.808;23.422;2023-06-22T09:31:06;94638.75;;;33.73;32.52
79085;BME280;68486;42.808;23.422;2023-06-22T09:33:32;94638.34;;;32.03;36.48
79085;BME280;68486;42.808;23.422;2023-06-22T09:35:57;94639.53;;;32.88;33.00
79085;BME280;68486;42.808;23.422;2023-06-22T09:38:23;94633.94;;;32.50;33.93
79085;BME280;68486;42.808;23.422;2023-06-22T09:40:48;94633.50;;;33.21;34.28
79085;BME280;68486;42.808;23.422;2023-06-22T09:43:14;94634.22;;;32.66;33.23
79085;BME280;68486;42.808;23.422;2023-06-22T09:45:39;94627.00;;;34.19;32.16
79085;BME280;68486;42.808;23.422;2023-06-22T09:48:05;94625.28;;;34.15;32.55
79085;BME280;68486;42.808;23.422;2023-06-22T09:50:30;94620.28;;;34.38;29.22
79085;BME280;68486;42.808;23.422;2023-06-22T09:52:56;94626.94;;;33.31;31.63
79085;BME280;68486;42.808;23.422;2023-06-22T09:55:22;94617.16;;;32.05;32.87
79085;BME280;68486;42.808;23.422;2023-06-22T09:57:47;94609.63;;;31.93;34.68
79085;BME280;68486;42.808;23.422;2023-06-22T10:00:14;94612.97;;;33.58;32.10
79085;BME280;68486;42.808;23.422;2023-06-22T10:02:44;94619.59;;;34.49;30.02
79085;BME280;68486;42.808;23.422;2023-06-22T10:05:10;94610.13;;;33.55;31.12
79085;BME280;68486;42.808;23.422;2023-06-22T10:07:35;94613.31;;;35.48;29.91
79085;BME280;68486;42.808;23.422;2023-06-22T10:10:06;94619.31;;;34.63;31.15
79085;BME280;68486;42.808;23.422;2023-06-22T10:12:31;94614.59;;;34.93;29.23
79085;BME280;68486;42.808;23.422;2023-06-22T10:14:57;94609.16;;;34.31;29.11
79085;BME280;68486;42.808;23.422;2023-06-22T10:17:22;94603.91;;;32.73;33.76
79085;BME280;68486;42.808;23.422;2023-06-22T10:19:47;94581.75;;;31.36;37.04
79085;BME280;68486;42.808;23.422;2023-06-22T10:22:13;94607.25;;;31.83;36.81
79085;BME280;68486;42.808;23.422;2023-06-22T10:24:38;94605.44;;;33.93;32.13
79085;BME280;68486;42.808;23.422;2023-06-22T10:27:12;94603.53;;;34.15;32.90
79085;BME280;68486;42.808;23.422;2023-06-22T10:29:38;94596.56;;;37.19;27.86
79085;BME280;68486;42.808;23.422;2023-06-22T10:32:04;94604.97;;;34.42;30.38
79085;BME280;68486;42.808;23.422;2023-06-22T10:34:30;94595.38;;;33.94;33.11
79085;BME280;68486;42.808;23.422;2023-06-22T10:36:55;94582.28;;;34.71;31.07
79085;BME280;68486;42.808;23.422;2023-06-22T10:39:20;94595.66;;;34.97;31.03
79085;BME280;68486;42.808;23.422;2023-06-22T10:41:46;94588.84;;;33.57;31.71
79085;BME280;68486;42.808;23.422;2023-06-22T10:44:11;94585.66;;;35.95;28.03
79085;BME280;68486;42.808;23.422;2023-06-22T10:46:37;94588.75;;;35.12;31.31
79085;BME280;68486;42.808;23.422;2023-06-22T10:49:03;94583.09;;;32.38;33.67
79085;BME280;68486;42.808;23.422;2023-06-22T10:51:28;94571.16;;;31.08;35.61
79085;BME280;68486;42.808;23.422;2023-06-22T10:53:54;94573.94;;;31.25;36.25
79085;BME280;68486;42.808;23.422;2023-06-22T10:56:19;94576.53;;;31.88;35.66
79085;BME280;68486;42.808;23.422;2023-06-22T10:58:45;94579.56;;;32.03;36.21
79085;BME280;68486;42.808;23.422;2023-06-22T11:01:10;94578.41;;;32.82;34.49
79085;BME280;68486;42.808;23.422;2023-06-22T11:03:36;94585.31;;;32.02;34.53
79085;BME280;68486;42.808;23.422;2023-06-22T11:06:02;94586.09;;;32.37;34.08
79085;BME280;68486;42.808;23.422;2023-06-22T11:08:27;94585.19;;;34.12;31.73
79085;BME280;68486;42.808;23.422;2023-06-22T11:10:53;94579.38;;;32.52;32.43
79085;BME280;68486;42.808;23.422;2023-06-22T11:13:18;94581.75;;;32.01;34.34
79085;BME280;68486;42.808;23.422;2023-06-22T11:15:43;94556.88;;;33.24;32.27
79085;BME280;68486;42.808;23.422;2023-06-22T11:18:09;94573.25;;;33.45;33.84
79085;BME280;68486;42.808;23.422;2023-06-22T11:20:34;94571.19;;;32.95;33.79
79085;BME280;68486;42.808;23.422;2023-06-22T11:23:07;94579.06;;;32.62;34.02
79085;BME280;68486;42.808;23.422;2023-06-22T11:25:33;94556.00;;;34.63;32.99
79085;BME280;68486;42.808;23.422;2023-06-22T11:28:02;94566.28;;;33.65;32.28
79085;BME280;68486;42.808;23.422;2023-06-22T11:30:28;94532.00;;;34.77;29.60
79085;BME280;68486;42.808;23.422;2023-06-22T11:32:53;94569.44;;;37.58;27.85
79085;BME280;68486;42.808;23.422;2023-06-22T11:35:18;94558.50;;;35.25;30.37
79085;BME280;68486;42.808;23.422;2023-06-22T11:37:44;94570.41;;;34.42;30.78
79085;BME280;68486;42.808;23.422;2023-06-22T11:40:10;94567.81;;;35.49;28.66
79085;BME280;68486;42.808;23.422;2023-06-22T11:42:35;94569.75;;;35.97;30.23
79085;BME280;68486;42.808;23.422;2023-06-22T11:45:01;94575.06;;;35.81;29.79
79085;BME280;68486;42.808;23.422;2023-06-22T11:47:27;94578.34;;;34.47;31.32
79085;BME280;68486;42.808;23.422;2023-06-22T11:49:52;94578.03;;;34.07;33.98
79085;BME280;68486;42.808;23.422;2023-06-22T11:52:18;94566.75;;;33.67;34.08
79085;BME280;68486;42.808;23.422;2023-06-22T11:54:44;94531.06;;;32.62;36.12
79085;BME280;68486;42.808;23.422;2023-06-22T11:57:11;94564.13;;;32.38;36.13
79085;BME280;68486;42.808;23.422;2023-06-22T11:59:36;94562.50;;;32.11;36.63
79085;BME280;68486;42.808;23.422;2023-06-22T12:02:01;94560.44;;;32.34;37.23
79085;BME280;68486;42.808;23.422;2023-06-22T12:04:27;94567.44;;;32.18;37.37
79085;BME280;68486;42.808;23.422;2023-06-22T12:06:52;94564.25;;;31.81;39.38
79085;BME280;68486;42.808;23.422;2023-06-22T12:09:18;94547.25;;;31.41;39.06
79085;BME280;68486;42.808;23.422;2023-06-22T12:11:43;94553.81;;;31.09;39.66
79085;BME280;68486;42.808;23.422;2023-06-22T12:14:08;94535.50;;;31.46;39.93
79085;BME280;68486;42.808;23.422;2023-06-22T12:16:34;94567.66;;;31.08;40.02
79085;BME280;68486;42.808;23.422;2023-06-22T12:18:59;94578.94;;;29.34;42.90
79085;BME280;68486;42.808;23.422;2023-06-22T12:21:25;94561.72;;;29.85;42.82
79085;BME280;68486;42.808;23.422;2023-06-22T12:23:50;94579.72;;;29.07;43.71
79085;BME280;68486;42.808;23.422;2023-06-22T12:26:15;94548.19;;;28.75;43.77
79085;BME280;68486;42.808;23.422;2023-06-22T12:28:41;94580.22;;;29.36;42.83
79085;BME280;68486;42.808;23.422;2023-06-22T12:31:06;94572.72;;;29.61;43.44
79085;BME280;68486;42.808;23.422;2023-06-22T12:33:32;94574.31;;;31.50;37.61
79085;BME280;68486;42.808;23.422;2023-06-22T12:35:57;94564.25;;;32.25;36.52
79085;BME280;68486;42.808;23.422;2023-06-22T12:38:23;94570.13;;;31.26;38.39
79085;BME280;68486;42.808;23.422;2023-06-22T12:40:50;94572.84;;;31.83;38.88
79085;BME280;68486;42.808;23.422;2023-06-22T12:43:16;94564.88;;;30.99;39.33
79085;BME280;68486;42.808;23.422;2023-06-22T12:45:41;94573.38;;;29.94;41.55
79085;BME280;68486;42.808;23.422;2023-06-22T12:48:07;94573.53;;;29.06;44.95
79085;BME280;68486;42.808;23.422;2023-06-22T12:50:33;94589.13;;;26.73;49.88